createdAt,value
2023-01-07T00:01:32.915Z,2.00
2023-01-07T00:04:01.322Z,2.10
2023-01-07T00:06:34.165Z,1.90
2023-01-07T00:09:02.353Z,1.88
2023-01-07T00:11:35.352Z,2.00
2023-01-07T00:14:03.202Z,1.80
2023-01-07T00:16:31.541Z,2.10
2023-01-07T00:19:00.277Z,2.45
2023-01-07T00:21:28.363Z,1.85
2023-01-07T00:23:57.238Z,1.88
2023-01-07T00:26:26.863Z,2.10
2023-01-07T00:28:54.347Z,1.73
2023-01-07T00:31:29.365Z,2.53
2023-01-07T00:33:56.656Z,2.05
2023-01-07T00:36:25.547Z,2.13
2023-01-07T00:39:03.789Z,2.13
2023-01-07T00:41:30.954Z,1.80
2023-01-07T00:43:57.698Z,2.30
2023-01-07T00:46:24.603Z,1.77
2023-01-07T00:48:51.604Z,2.00
2023-01-07T00:51:19.081Z,1.88
2023-01-07T00:53:46.323Z,1.90
2023-01-07T00:56:18.900Z,1.67
2023-01-07T00:58:45.925Z,2.05
2023-01-07T01:01:13.038Z,2.03
2023-01-07T01:03:39.861Z,1.58
2023-01-07T01:06:10.660Z,2.10
2023-01-07T01:08:37.594Z,2.03
2023-01-07T01:11:09.363Z,1.90
2023-01-07T01:13:36.617Z,1.60
2023-01-07T01:16:11.632Z,1.70
2023-01-07T01:18:38.795Z,1.60
2023-01-07T01:21:11.078Z,1.90
2023-01-07T01:23:37.997Z,1.70
2023-01-07T01:26:10.646Z,1.60
2023-01-07T01:28:38.337Z,1.67
2023-01-07T01:31:06.192Z,1.80
2023-01-07T01:33:32.938Z,1.70
2023-01-07T01:36:02.917Z,1.60
2023-01-07T01:38:30.242Z,1.95
2023-01-07T01:40:57.021Z,1.75
2023-01-07T01:43:25.807Z,1.60
2023-01-07T01:45:53.852Z,1.60
2023-01-07T01:48:21.473Z,1.73
2023-01-07T01:50:48.887Z,1.70
2023-01-07T01:53:15.586Z,1.70
2023-01-07T01:55:50.010Z,1.67
2023-01-07T01:58:24.232Z,1.63
2023-01-07T02:00:51.800Z,1.50
2023-01-07T02:03:21.328Z,1.70
2023-01-07T02:05:49.229Z,1.73
2023-01-07T02:08:21.947Z,1.95
2023-01-07T02:11:02.428Z,1.60
2023-01-07T02:14:12.173Z,1.70
2023-01-07T02:17:03.800Z,1.70
2023-01-07T02:19:52.846Z,1.70
2023-01-07T02:22:40.618Z,1.65
2023-01-07T02:25:32.748Z,1.92
2023-01-07T02:28:27.296Z,1.75
2023-01-07T02:31:11.943Z,1.50
2023-01-07T02:34:06.830Z,1.70
2023-01-07T02:36:44.259Z,1.60
2023-01-07T02:39:30.147Z,1.73
2023-01-07T02:42:07.139Z,1.60
2023-01-07T02:44:50.765Z,1.70
2023-01-07T02:47:29.463Z,1.60
2023-01-07T02:49:56.202Z,1.73
2023-01-07T02:52:26.344Z,1.42
2023-01-07T02:55:04.092Z,1.60
2023-01-07T02:58:01.741Z,1.30
2023-01-07T03:00:53.290Z,1.42
2023-01-07T03:03:48.267Z,1.50
2023-01-07T03:06:15.265Z,1.20
2023-01-07T03:08:55.869Z,1.63
2023-01-07T03:11:24.788Z,1.52
2023-01-07T03:14:09.490Z,1.40
2023-01-07T03:16:40.002Z,1.40
2023-01-07T03:19:13.678Z,1.65
2023-01-07T03:21:40.531Z,1.60
2023-01-07T03:24:09.228Z,1.65
2023-01-07T03:26:44.024Z,1.17
2023-01-07T03:29:13.634Z,1.40
2023-01-07T03:31:56.260Z,1.50
2023-01-07T03:34:26.608Z,1.45
2023-01-07T03:36:59.999Z,1.52
2023-01-07T03:39:30.616Z,1.40
2023-01-07T03:42:18.969Z,1.40
2023-01-07T03:44:46.409Z,1.55
2023-01-07T03:47:13.229Z,1.45
2023-01-07T03:49:40.074Z,1.40
2023-01-07T03:52:06.830Z,1.63
2023-01-07T03:54:33.560Z,1.58
2023-01-07T03:57:00.302Z,1.63
2023-01-07T03:59:27.175Z,1.33
2023-01-07T04:01:54.088Z,1.40
2023-01-07T04:04:21.169Z,1.75
2023-01-07T04:06:48.730Z,1.50
2023-01-07T04:09:16.301Z,1.45
2023-01-07T04:11:43.100Z,1.30
2023-01-07T04:14:09.983Z,1.23
2023-01-07T04:16:36.895Z,1.35
2023-01-07T04:19:04.214Z,1.45
2023-01-07T04:21:31.025Z,1.40
2023-01-07T04:23:57.778Z,1.40
2023-01-07T04:26:24.500Z,1.40
2023-01-07T04:28:51.262Z,1.40
2023-01-07T04:31:17.996Z,1.30
2023-01-07T04:33:44.787Z,1.45
2023-01-07T04:36:13.551Z,1.38
2023-01-07T04:38:40.299Z,1.40
2023-01-07T04:41:07.110Z,1.35
2023-01-07T04:43:34.096Z,1.52
2023-01-07T04:46:00.942Z,1.40
2023-01-07T04:48:27.703Z,1.20
2023-01-07T04:50:54.549Z,1.30
2023-01-07T04:53:21.361Z,1.20
2023-01-07T04:55:48.086Z,1.73
2023-01-07T04:58:14.931Z,1.40
2023-01-07T05:00:41.669Z,1.45
2023-01-07T05:03:08.489Z,1.85
2023-01-07T05:05:35.265Z,1.50
2023-01-07T05:08:02.060Z,1.52
2023-01-07T05:10:28.935Z,1.50
2023-01-07T05:12:55.688Z,1.40
2023-01-07T05:15:22.388Z,1.73
2023-01-07T05:17:49.101Z,1.38
2023-01-07T05:20:16.006Z,1.30
2023-01-07T05:22:42.750Z,1.50
2023-01-07T05:25:09.879Z,1.35
2023-01-07T05:27:36.672Z,1.50
2023-01-07T05:30:04.348Z,1.45
2023-01-07T05:32:31.378Z,1.40
2023-01-07T05:34:58.820Z,1.52
2023-01-07T05:37:25.550Z,1.40
2023-01-07T05:39:52.267Z,1.45
2023-01-07T05:42:19.114Z,1.40
2023-01-07T05:44:45.868Z,1.50
2023-01-07T05:47:12.600Z,1.55
2023-01-07T05:49:39.382Z,1.60
2023-01-07T05:52:06.202Z,1.63
2023-01-07T05:54:32.965Z,1.70
2023-01-07T05:56:59.746Z,1.30
2023-01-07T05:59:26.467Z,1.70
2023-01-07T06:01:53.199Z,1.40
2023-01-07T06:04:20.177Z,1.23
2023-01-07T06:06:46.907Z,1.52
2023-01-07T06:09:13.758Z,1.70
2023-01-07T06:11:40.515Z,1.70
2023-01-07T06:14:07.226Z,1.63
2023-01-07T06:16:33.958Z,1.63
2023-01-07T06:19:00.737Z,1.50
2023-01-07T06:21:27.553Z,1.52
2023-01-07T06:23:55.380Z,1.50
2023-01-07T06:26:22.188Z,1.80
2023-01-07T06:28:51.688Z,1.30
2023-01-07T06:31:18.536Z,1.67
2023-01-07T06:33:45.461Z,1.50
2023-01-07T06:36:12.253Z,1.63
2023-01-07T06:38:38.987Z,1.88
2023-01-07T06:41:05.832Z,1.77
2023-01-07T06:43:32.699Z,1.95
2023-01-07T06:45:59.634Z,1.70
2023-01-07T06:48:26.841Z,1.75
2023-01-07T06:50:53.633Z,1.60
2023-01-07T06:53:20.598Z,1.48
2023-01-07T06:55:49.115Z,1.75
2023-01-07T06:58:16.525Z,1.20
2023-01-07T07:00:43.483Z,1.70
2023-01-07T07:03:10.290Z,1.77
2023-01-07T07:05:37.377Z,1.30
2023-01-07T07:08:05.085Z,1.70
2023-01-07T07:10:31.896Z,1.70
2023-01-07T07:12:58.648Z,1.70
2023-01-07T07:15:25.449Z,1.90
2023-01-07T07:17:52.218Z,2.20
2023-01-07T07:20:19.041Z,3.13
2023-01-07T07:22:47.030Z,3.15
2023-01-07T07:25:14.427Z,2.92
2023-01-07T07:27:43.773Z,2.42
2023-01-07T07:30:11.165Z,2.20
2023-01-07T07:32:37.903Z,1.88
2023-01-07T07:35:04.982Z,1.80
2023-01-07T07:37:31.692Z,2.17
2023-01-07T07:39:58.512Z,2.58
2023-01-07T07:42:25.233Z,2.30
2023-01-07T07:44:51.963Z,2.53
2023-01-07T07:47:18.779Z,2.50
2023-01-07T07:49:45.567Z,2.33
2023-01-07T07:52:12.331Z,2.20
2023-01-07T07:54:39.091Z,1.60
2023-01-07T07:57:05.830Z,1.88
2023-01-07T07:59:33.003Z,1.98
2023-01-07T08:01:59.807Z,1.60
2023-01-07T08:04:28.796Z,1.65
2023-01-07T08:06:55.970Z,1.70
2023-01-07T08:09:22.728Z,2.03
2023-01-07T08:11:49.524Z,1.85
2023-01-07T08:14:16.284Z,1.70
2023-01-07T08:16:43.010Z,2.20
2023-01-07T08:19:11.157Z,1.90
2023-01-07T08:21:37.899Z,2.00
2023-01-07T08:24:05.058Z,2.20
2023-01-07T08:26:33.754Z,2.42
2023-01-07T08:29:00.529Z,2.50
2023-01-07T08:31:27.317Z,2.30
2023-01-07T08:33:56.420Z,1.92
2023-01-07T08:36:23.714Z,2.25
2023-01-07T08:38:55.062Z,2.80
2023-01-07T08:41:23.228Z,4.13
2023-01-07T08:43:50.461Z,4.90
2023-01-07T08:46:17.288Z,6.45
2023-01-07T08:48:44.066Z,8.05
2023-01-07T08:51:10.828Z,9.48
2023-01-07T08:53:37.593Z,11.00
2023-01-07T08:56:04.575Z,11.25
2023-01-07T08:58:31.315Z,12.90
2023-01-07T09:01:07.300Z,12.98
2023-01-07T09:03:34.595Z,13.13
2023-01-07T09:06:01.353Z,12.82
2023-01-07T09:08:28.235Z,12.25
2023-01-07T09:10:56.064Z,10.60
2023-01-07T09:13:22.899Z,10.88
2023-01-07T09:15:49.603Z,10.88
2023-01-07T09:18:16.353Z,11.20
2023-01-07T09:20:43.195Z,11.88
2023-01-07T09:23:10.109Z,12.77
2023-01-07T09:25:36.975Z,14.38
2023-01-07T09:28:03.842Z,14.10
2023-01-07T09:30:30.618Z,14.07
2023-01-07T09:32:57.369Z,12.52
2023-01-07T09:35:24.210Z,12.27
2023-01-07T09:37:51.147Z,11.32
2023-01-07T09:40:28.694Z,11.18
2023-01-07T09:43:26.780Z,9.57
2023-01-07T09:46:15.241Z,8.88
2023-01-07T09:48:51.462Z,10.05
2023-01-07T09:53:54.527Z,8.52
2023-01-07T09:56:28.623Z,7.57
2023-01-07T09:58:57.347Z,6.80
2023-01-07T10:01:36.777Z,5.78
2023-01-07T10:04:22.082Z,5.15
2023-01-07T10:07:06.041Z,6.53
2023-01-07T10:09:52.508Z,6.28
2023-01-07T10:12:36.426Z,6.38
2023-01-07T10:15:37.073Z,6.32
2023-01-07T10:18:23.092Z,6.00
2023-01-07T10:21:12.428Z,5.20
2023-01-07T10:23:43.239Z,5.63
2023-01-07T10:26:19.555Z,4.93
2023-01-07T10:28:56.197Z,4.05
2023-01-07T10:31:25.741Z,4.10
2023-01-07T10:33:53.421Z,3.92
2023-01-07T10:36:27.360Z,3.50
2023-01-07T10:39:21.999Z,2.85
2023-01-07T10:41:57.343Z,2.75
2023-01-07T10:44:42.687Z,2.70
2023-01-07T10:47:18.307Z,2.45
2023-01-07T10:49:54.636Z,2.45
2023-01-07T10:52:39.523Z,2.47
2023-01-07T10:55:24.348Z,2.40
2023-01-07T10:57:51.470Z,2.17
2023-01-07T11:00:21.661Z,2.25
2023-01-07T11:02:56.537Z,1.90
2023-01-07T11:05:38.269Z,1.60
2023-01-07T11:08:15.943Z,1.80
2023-01-07T11:10:42.802Z,1.90
2023-01-07T11:13:14.633Z,1.60
2023-01-07T11:15:52.986Z,1.48
2023-01-07T11:18:34.596Z,1.50
2023-01-07T11:21:01.429Z,1.52
2023-01-07T11:23:44.125Z,1.67
2023-01-07T11:26:26.603Z,1.20
2023-01-07T11:29:00.269Z,1.38
2023-01-07T11:31:52.867Z,1.15
2023-01-07T11:34:43.418Z,1.10
2023-01-07T11:37:11.230Z,1.30
2023-01-07T11:39:38.102Z,1.20
2023-01-07T11:42:38.579Z,1.35
2023-01-07T11:45:19.253Z,1.02
2023-01-07T11:47:49.813Z,1.23
2023-01-07T11:50:30.470Z,1.30
2023-01-07T11:53:15.218Z,1.10
2023-01-07T11:55:57.303Z,1.45
2023-01-07T11:58:28.298Z,1.20
2023-01-07T12:01:09.193Z,2.10
2023-01-07T12:03:43.488Z,1.17
2023-01-07T12:06:18.945Z,1.25
2023-01-07T12:09:05.615Z,1.10
2023-01-07T12:11:36.103Z,1.27
2023-01-07T12:14:25.598Z,0.93
2023-01-07T12:16:53.833Z,1.00
2023-01-07T12:19:31.548Z,1.05
2023-01-07T12:22:14.184Z,1.00
2023-01-07T12:24:53.340Z,1.20
2023-01-07T12:27:20.027Z,1.02
2023-01-07T12:30:06.547Z,1.10
2023-01-07T12:32:36.321Z,1.20
2023-01-07T12:35:23.995Z,0.95
2023-01-07T12:38:16.158Z,1.10
2023-01-07T12:41:00.292Z,1.02
2023-01-07T12:44:02.431Z,1.00
2023-01-07T12:46:38.883Z,1.10
2023-01-07T12:49:25.615Z,1.10
2023-01-07T12:54:53.629Z,1.20
2023-01-07T12:57:24.783Z,1.00
2023-01-07T13:00:08.364Z,1.00
2023-01-07T13:02:50.972Z,1.02
2023-01-07T13:05:36.243Z,1.10
2023-01-07T13:08:25.176Z,1.00
2023-01-07T13:11:01.917Z,0.90
2023-01-07T13:13:43.739Z,1.02
2023-01-07T13:16:11.407Z,1.00
2023-01-07T13:18:38.674Z,1.00
2023-01-07T13:21:16.101Z,1.00
2023-01-07T13:24:07.212Z,1.00
2023-01-07T13:27:29.235Z,1.13
2023-01-07T13:30:40.509Z,1.50
2023-01-07T13:33:27.613Z,1.35
2023-01-07T13:36:00.198Z,1.00
2023-01-07T13:39:19.978Z,1.10
2023-01-07T13:41:57.252Z,0.95
2023-01-07T13:45:02.510Z,1.00
2023-01-07T13:47:54.377Z,0.90
2023-01-07T13:50:39.264Z,1.00
2023-01-07T13:53:27.343Z,1.00
2023-01-07T13:56:14.707Z,0.95
2023-01-07T13:58:44.994Z,1.10
2023-01-07T14:01:20.185Z,1.05
2023-01-07T14:04:11.742Z,1.00
2023-01-07T14:06:44.512Z,1.05
2023-01-07T14:09:17.567Z,1.13
2023-01-07T14:12:02.822Z,0.90
2023-01-07T14:14:52.520Z,1.13
2023-01-07T14:17:46.500Z,1.20
2023-01-07T14:20:47.566Z,1.30
2023-01-07T14:23:27.850Z,1.50
2023-01-07T14:26:08.051Z,1.20
2023-01-07T14:29:11.089Z,1.00
2023-01-07T14:31:38.093Z,1.35
2023-01-07T14:34:16.250Z,1.13
2023-01-07T14:37:08.858Z,1.17
2023-01-07T14:39:39.830Z,1.10
2023-01-07T14:42:38.668Z,1.02
2023-01-07T14:45:38.105Z,0.80
2023-01-07T14:48:07.839Z,1.10
2023-01-07T14:50:40.528Z,1.13
2023-01-07T14:53:16.442Z,1.30
2023-01-07T14:56:05.029Z,1.35
2023-01-07T14:58:57.195Z,1.27
2023-01-07T15:01:42.621Z,1.27
2023-01-07T15:04:40.241Z,1.25
2023-01-07T15:07:24.657Z,1.67
2023-01-07T15:10:18.816Z,1.52
2023-01-07T15:13:11.914Z,1.23
2023-01-07T15:15:59.788Z,1.25
2023-01-07T15:18:28.601Z,1.30
2023-01-07T15:21:10.455Z,1.55
2023-01-07T15:24:05.417Z,1.17
2023-01-07T15:26:45.908Z,1.33
2023-01-07T15:29:24.758Z,1.20
2023-01-07T15:32:13.174Z,1.45
2023-01-07T15:34:40.385Z,1.23
2023-01-07T15:37:08.646Z,0.98
2023-01-07T15:39:45.147Z,1.30
2023-01-07T15:42:15.322Z,1.10
2023-01-07T15:44:42.418Z,1.02
2023-01-07T15:47:41.461Z,1.17
2023-01-07T15:50:28.954Z,1.25
2023-01-07T15:52:57.343Z,1.30
2023-01-07T15:55:29.020Z,1.25
2023-01-07T15:58:02.499Z,1.17
2023-01-07T16:00:29.783Z,1.38
2023-01-07T16:02:57.499Z,1.30
2023-01-07T16:05:27.517Z,1.30
2023-01-07T16:07:59.479Z,1.40
2023-01-07T16:10:34.520Z,1.10
2023-01-07T16:13:15.355Z,1.10
2023-01-07T16:15:42.244Z,1.27
2023-01-07T16:18:08.938Z,1.10
2023-01-07T16:20:43.281Z,1.10
2023-01-07T16:23:09.989Z,1.38
2023-01-07T16:25:44.500Z,1.50
2023-01-07T16:28:23.264Z,1.48
2023-01-07T16:30:51.433Z,1.02
2023-01-07T16:33:21.504Z,1.55
2023-01-07T16:35:50.315Z,1.27
2023-01-07T16:38:19.737Z,1.20
2023-01-07T16:40:48.044Z,1.70
2023-01-07T16:43:39.049Z,1.40
2023-01-07T16:46:30.777Z,1.52
2023-01-07T16:49:19.165Z,2.63
2023-01-07T16:51:52.015Z,3.70
2023-01-07T16:54:24.536Z,4.72
2023-01-07T16:56:54.201Z,4.63
2023-01-07T16:59:24.413Z,4.90
2023-01-07T17:01:51.752Z,4.57
2023-01-07T17:04:30.126Z,4.05
2023-01-07T17:07:00.011Z,3.17
2023-01-07T17:09:38.872Z,3.65
2023-01-07T17:12:05.915Z,3.38
2023-01-07T17:14:38.199Z,3.60
2023-01-07T17:17:26.247Z,3.10
2023-01-07T17:20:00.610Z,2.30
2023-01-07T17:22:38.153Z,2.13
2023-01-07T17:25:13.916Z,1.90
2023-01-07T17:27:54.896Z,1.90
2023-01-07T17:30:22.936Z,1.80
2023-01-07T17:32:53.133Z,1.80
2023-01-07T17:35:24.086Z,1.38
2023-01-07T17:37:52.185Z,1.90
2023-01-07T17:40:20.508Z,1.40
2023-01-07T17:43:06.906Z,1.45
2023-01-07T17:45:33.740Z,1.67
2023-01-07T17:48:01.424Z,1.52
2023-01-07T17:50:36.202Z,1.70
2023-01-07T17:53:03.333Z,1.73
2023-01-07T17:55:34.350Z,1.60
2023-01-07T17:58:01.117Z,2.13
2023-01-07T18:00:31.113Z,2.00
2023-01-07T18:02:58.429Z,2.03
2023-01-07T18:05:26.497Z,2.45
2023-01-07T18:07:53.694Z,2.33
2023-01-07T18:10:29.043Z,2.03
2023-01-07T18:12:55.862Z,2.40
2023-01-07T18:15:25.322Z,2.03
2023-01-07T18:17:52.881Z,1.75
2023-01-07T18:20:21.883Z,1.73
2023-01-07T18:22:48.783Z,1.77
2023-01-07T18:25:18.276Z,1.90
2023-01-07T18:27:45.527Z,1.60
2023-01-07T18:30:18.349Z,1.85
2023-01-07T18:32:45.154Z,1.77
2023-01-07T18:35:12.908Z,1.55
2023-01-07T18:37:39.849Z,1.88
2023-01-07T18:40:08.482Z,1.80
2023-01-07T18:42:36.047Z,2.00
2023-01-07T18:45:04.450Z,1.50
2023-01-07T18:47:31.625Z,1.55
2023-01-07T18:49:58.602Z,1.80
2023-01-07T18:52:25.524Z,1.65
2023-01-07T18:54:52.314Z,1.40
2023-01-07T18:57:19.204Z,1.60
2023-01-07T18:59:46.015Z,1.90
2023-01-07T19:02:18.356Z,1.80
2023-01-07T19:04:47.177Z,1.98
2023-01-07T19:07:14.533Z,1.75
2023-01-07T19:09:41.426Z,1.52
2023-01-07T19:12:08.219Z,1.80
2023-01-07T19:14:35.145Z,2.00
2023-01-07T19:17:02.140Z,1.67
2023-01-07T19:19:36.953Z,1.95
2023-01-07T19:22:10.763Z,1.90
2023-01-07T19:24:37.649Z,1.80
2023-01-07T19:27:04.437Z,1.90
2023-01-07T19:29:31.202Z,1.90
2023-01-07T19:31:58.018Z,1.98
2023-01-07T19:34:25.188Z,2.05
2023-01-07T19:36:55.182Z,2.00
2023-01-07T19:39:23.351Z,1.70
2023-01-07T19:41:50.951Z,1.77
2023-01-07T19:44:18.014Z,1.80
2023-01-07T19:46:47.007Z,1.80
2023-01-07T19:49:13.781Z,1.95
2023-01-07T19:51:41.845Z,1.77
2023-01-07T19:54:15.892Z,1.80
2023-01-07T19:56:43.657Z,2.17
2023-01-07T19:59:10.831Z,1.60
2023-01-07T20:01:38.888Z,1.95
2023-01-07T20:04:07.486Z,1.80
2023-01-07T20:06:35.781Z,1.85
2023-01-07T20:09:10.890Z,1.70
2023-01-07T20:11:42.463Z,1.83
2023-01-07T20:14:10.504Z,2.20
2023-01-07T20:16:39.396Z,2.03
2023-01-07T20:19:06.347Z,1.70
2023-01-07T20:21:33.400Z,1.95
2023-01-07T20:24:00.582Z,2.00
2023-01-07T20:26:30.413Z,1.70
2023-01-07T20:28:58.469Z,1.88
2023-01-07T20:31:27.159Z,1.55
2023-01-07T20:33:57.814Z,2.05
2023-01-07T20:36:30.064Z,2.00
2023-01-07T20:38:57.742Z,2.03
2023-01-07T20:41:27.314Z,2.00
2023-01-07T20:43:59.207Z,2.13
2023-01-07T20:46:27.791Z,2.03
2023-01-07T20:48:55.517Z,2.10
2023-01-07T20:51:22.476Z,1.90
2023-01-07T20:53:49.363Z,2.10
2023-01-07T20:56:18.942Z,1.80
2023-01-07T20:58:46.565Z,1.75
2023-01-07T21:01:15.955Z,1.60
2023-01-07T21:03:43.144Z,1.58
2023-01-07T21:06:12.409Z,1.63
2023-01-07T21:08:39.835Z,1.90
2023-01-07T21:11:15.836Z,1.90
2023-01-07T21:13:42.812Z,1.90
2023-01-07T21:16:10.276Z,1.95
2023-01-07T21:18:37.402Z,2.35
2023-01-07T21:21:13.351Z,2.20
2023-01-07T21:23:40.762Z,2.95
2023-01-07T21:26:08.944Z,2.90
2023-01-07T21:28:36.255Z,2.47
2023-01-07T21:31:09.194Z,2.90
2023-01-07T21:33:37.170Z,3.28
2023-01-07T21:36:12.414Z,3.83
2023-01-07T21:38:39.458Z,4.17
2023-01-07T21:41:08.575Z,3.70
2023-01-07T21:43:36.162Z,3.30
2023-01-07T21:46:04.853Z,3.38
2023-01-07T21:48:33.349Z,3.45
2023-01-07T21:51:05.702Z,3.00
2023-01-07T21:53:34.975Z,2.75
2023-01-07T21:56:10.566Z,3.10
2023-01-07T21:58:38.048Z,2.65
2023-01-07T22:01:06.413Z,2.85
2023-01-07T22:03:34.675Z,3.25
2023-01-07T22:06:04.688Z,2.95
2023-01-07T22:08:31.687Z,3.47
2023-01-07T22:10:58.575Z,3.40
2023-01-07T22:13:25.880Z,3.60
2023-01-07T22:15:52.791Z,3.80
2023-01-07T22:18:19.521Z,3.40
2023-01-07T22:20:53.276Z,3.60
2023-01-07T22:23:20.042Z,3.20
2023-01-07T22:25:46.770Z,3.47
2023-01-07T22:28:16.520Z,3.38
2023-01-07T22:30:48.959Z,3.53
2023-01-07T22:33:15.677Z,3.55
2023-01-07T22:35:42.661Z,4.28
2023-01-07T22:38:12.179Z,4.35
2023-01-07T22:40:39.544Z,4.72
2023-01-07T22:43:09.300Z,4.95
2023-01-07T22:45:47.805Z,4.50
2023-01-07T22:48:20.876Z,4.97
2023-01-07T22:50:47.901Z,5.45
2023-01-07T22:53:14.759Z,5.57
2023-01-07T22:55:41.659Z,6.00
2023-01-07T22:58:08.522Z,5.10
2023-01-07T23:00:54.737Z,4.97
2023-01-07T23:03:23.778Z,5.53
2023-01-07T23:05:51.299Z,5.30
2023-01-07T23:08:18.384Z,5.18
2023-01-07T23:10:45.313Z,5.28
2023-01-07T23:13:12.426Z,5.32
2023-01-07T23:15:39.681Z,5.30
2023-01-07T23:18:08.729Z,5.10
2023-01-07T23:20:39.195Z,5.13
2023-01-07T23:23:06.662Z,5.38
2023-01-07T23:25:33.872Z,5.78
2023-01-07T23:28:00.620Z,5.55
2023-01-07T23:30:27.356Z,6.18
2023-01-07T23:32:54.100Z,5.63
2023-01-07T23:35:20.829Z,5.47
2023-01-07T23:37:47.568Z,5.47
2023-01-07T23:40:14.531Z,5.15
2023-01-07T23:42:44.601Z,5.63
2023-01-07T23:45:11.773Z,5.18
2023-01-07T23:47:38.592Z,5.18
2023-01-07T23:50:05.877Z,5.22
2023-01-07T23:52:32.676Z,5.78
2023-01-07T23:54:59.646Z,5.68
2023-01-07T23:57:27.619Z,5.07
2023-01-07T23:59:54.400Z,5.15
